Time;durP1;ratioP1;P1;durP2;ratioP2;P2;SDS_P1;SDS_P2;PMS_P1;PMS_P2;Temp;Humidity;BMP_temperature;BMP_pressure;BME280_temperature;BME280_humidity;BME280_pressure;Samples;Min_cycle;Max_cycle;Signal;HPM_P1;HPM_P2
2022/01/07 00:00:30;;;;;;;20.35;6.40;;;4.40;99.90;;;2.48;100.00;100563.59;4952884;28;20047;-83
2022/01/07 00:03:12;;;;;;;20.20;6.45;;;4.40;99.90;;;2.44;100.00;100562.16;4933064;29;20047;-83
2022/01/07 00:05:39;;;;;;;16.42;5.85;;;4.40;99.90;;;2.50;100.00;100556.25;4967551;28;20055;-83
2022/01/07 00:08:07;;;;;;;22.52;5.88;;;4.40;99.90;;;2.50;100.00;100559.78;4970245;28;20582;-83
2022/01/07 00:10:34;;;;;;;16.52;6.13;;;4.40;99.90;;;2.45;100.00;100542.34;4969659;28;20565;-83
2022/01/07 00:13:03;;;;;;;21.80;7.00;;;4.50;99.90;;;2.50;100.00;100540.13;4969122;28;20150;-83
2022/01/07 00:15:31;;;;;;;17.70;6.10;;;4.40;99.90;;;2.55;100.00;100537.88;4954007;28;20475;-83
2022/01/07 00:17:59;;;;;;;19.52;6.53;;;4.40;99.90;;;2.52;100.00;100539.00;4950689;29;20102;-83
2022/01/07 00:20:27;;;;;;;16.40;5.50;;;4.50;99.90;;;2.58;100.00;100532.25;4964046;28;20080;-84
2022/01/07 00:22:54;;;;;;;20.70;6.30;;;4.50;99.90;;;2.59;100.00;100525.91;4969057;28;20537;-83
2022/01/07 00:25:23;;;;;;;24.73;7.22;;;4.50;99.90;;;2.59;100.00;100523.22;4969074;28;20051;-83
2022/01/07 00:27:51;;;;;;;18.50;6.47;;;4.50;99.90;;;2.63;100.00;100530.03;4969738;28;20097;-83
2022/01/07 00:30:22;;;;;;;14.35;6.53;;;4.50;99.90;;;2.66;100.00;100519.00;4958046;28;20070;-83
2022/01/07 00:32:49;;;;;;;21.02;6.30;;;4.50;99.90;;;2.64;100.00;100518.28;4949695;28;20141;-84
2022/01/07 00:35:19;;;;;;;16.58;5.80;;;4.50;99.90;;;2.65;100.00;100508.41;4961018;28;20047;-83
2022/01/07 00:37:48;;;;;;;15.20;6.07;;;4.50;99.90;;;2.60;100.00;100506.09;4969700;28;20081;-83
2022/01/07 00:40:20;;;;;;;21.33;6.07;;;4.50;99.90;;;2.62;100.00;100504.13;4958240;28;20149;-83
2022/01/07 00:42:50;;;;;;;15.70;5.75;;;4.50;99.90;;;2.66;100.00;100497.50;4953616;28;20133;-84
2022/01/07 00:45:19;;;;;;;16.80;5.63;;;4.60;99.90;;;2.67;100.00;100493.84;4966698;28;20051;-83
2022/01/07 00:47:47;;;;;;;20.88;6.03;;;4.60;99.90;;;2.71;100.00;100484.53;4969456;28;20039;-83
2022/01/07 00:50:17;;;;;;;16.25;5.82;;;4.60;99.90;;;2.76;100.00;100488.66;4969485;28;20061;-83
2022/01/07 00:52:44;;;;;;;15.07;5.60;;;4.60;99.90;;;2.73;100.00;100482.56;4968767;28;20578;-84
2022/01/07 00:55:13;;;;;;;15.10;5.43;;;4.60;99.90;;;2.74;100.00;100468.16;4951078;28;20047;-84
2022/01/07 01:00:21;;;;;;;17.58;5.75;;;4.50;99.90;;;2.72;100.00;100463.88;4965167;28;20063;-90
2022/01/07 01:02:48;;;;;;;14.77;5.65;;;4.60;99.90;;;2.71;100.00;100459.50;4968809;28;20046;-89
2022/01/07 01:05:17;;;;;;;12.10;5.15;;;4.60;99.90;;;2.71;100.00;100460.34;4970311;28;20050;-89
2022/01/07 01:07:45;;;;;;;16.05;5.55;;;4.70;99.90;;;2.71;100.00;100451.44;4971888;28;20120;-91
2022/01/07 01:10:15;;;;;;;13.68;5.30;;;4.60;99.90;;;2.67;100.00;100450.84;5008341;28;20605;-89
2022/01/07 01:12:45;;;;;;;18.63;5.63;;;4.60;99.90;;;2.78;100.00;100460.66;4997096;28;20101;-90
2022/01/07 01:15:15;;;;;;;21.05;6.55;;;4.60;99.90;;;2.68;100.00;100451.69;4989086;28;20159;-91
2022/01/07 01:17:45;;;;;;;16.02;5.68;;;4.80;99.90;;;2.72;100.00;100442.38;5004870;28;20060;-90
2022/01/07 01:20:13;;;;;;;14.93;5.45;;;4.60;99.90;;;2.80;100.00;100447.94;5005355;28;20133;-90
2022/01/07 01:22:41;;;;;;;17.45;5.55;;;4.70;99.90;;;2.88;100.00;100444.56;4985790;28;20054;-89
2022/01/07 01:25:10;;;;;;;15.93;5.65;;;4.70;99.90;;;2.89;100.00;100448.94;5008352;28;20125;-89
2022/01/07 01:27:37;;;;;;;18.15;5.68;;;4.70;99.90;;;2.84;100.00;100440.47;5007996;28;20137;-90
2022/01/07 01:30:08;;;;;;;19.52;5.90;;;4.70;99.90;;;2.84;100.00;100445.84;4990228;28;20111;-89
2022/01/07 01:32:36;;;;;;;16.67;5.65;;;4.70;99.90;;;2.83;100.00;100436.91;5007493;28;20496;-90
2022/01/07 01:35:07;;;;;;;18.95;5.65;;;4.80;99.90;;;2.82;100.00;100426.28;5008392;28;20038;-90
2022/01/07 01:37:35;;;;;;;21.15;6.13;;;4.70;99.90;;;2.88;100.00;100420.38;5005109;28;20046;-90
2022/01/07 01:40:03;;;;;;;14.80;5.30;;;4.80;99.90;;;2.91;100.00;100425.47;5007833;28;20057;-90
2022/01/07 01:42:31;;;;;;;21.23;6.18;;;4.80;99.90;;;2.84;100.00;100430.56;4992111;28;20061;-89
2022/01/07 01:44:58;;;;;;;19.88;5.47;;;4.80;99.90;;;2.83;100.00;100412.72;4994443;28;20165;-89
2022/01/07 01:47:25;;;;;;;18.58;6.35;;;4.80;99.90;;;2.88;100.00;100412.31;5011576;28;20046;-89
2022/01/07 01:49:53;;;;;;;18.55;5.63;;;4.80;99.90;;;2.94;100.00;100414.44;5011700;28;20104;-91
2022/01/07 01:52:21;;;;;;;14.02;5.45;;;4.80;99.90;;;2.87;100.00;100394.47;5011309;28;20584;-89
2022/01/07 01:54:49;;;;;;;14.77;5.07;;;4.80;99.90;;;2.91;100.00;100387.84;5011387;28;20046;-91
2022/01/07 01:57:16;;;;;;;16.98;6.00;;;4.80;99.90;;;2.89;100.00;100389.81;5011943;28;20068;-91
2022/01/07 01:59:44;;;;;;;12.70;6.38;;;4.80;99.90;;;2.86;100.00;100390.09;5010735;28;20034;-91
2022/01/07 02:02:11;;;;;;;15.43;5.47;;;4.80;99.90;;;2.82;100.00;100378.78;4973663;28;20050;-91
2022/01/07 02:04:40;;;;;;;15.77;5.88;;;4.80;99.90;;;2.82;100.00;100389.53;4997692;28;20058;-90
2022/01/07 02:07:08;;;;;;;14.60;5.47;;;4.80;99.90;;;2.96;100.00;100390.97;4981672;28;20081;-90
2022/01/07 02:09:38;;;;;;;14.50;5.82;;;4.80;99.90;;;2.95;100.00;100389.25;4979113;28;20033;-90
2022/01/07 02:12:08;;;;;;;19.85;6.47;;;4.80;99.90;;;2.99;100.00;100385.31;5010912;28;20042;-90
2022/01/07 02:14:36;;;;;;;16.95;5.53;;;4.80;99.90;;;2.95;100.00;100373.13;5011259;28;20153;-90
2022/01/07 02:17:08;;;;;;;18.80;6.35;;;4.80;99.90;;;2.96;100.00;100380.22;5010907;28;20089;-90
2022/01/07 02:19:38;;;;;;;11.98;5.13;;;4.80;99.90;;;2.91;100.00;100372.59;5011027;28;20038;-90
2022/01/07 02:22:06;;;;;;;14.07;5.45;;;4.80;99.90;;;2.83;100.00;100368.88;5010578;28;20114;-91
2022/01/07 02:24:37;;;;;;;16.45;5.53;;;4.80;99.90;;;2.85;100.00;100372.28;5011138;28;20057;-90
2022/01/07 02:27:06;;;;;;;12.00;5.10;;;4.80;99.90;;;2.92;100.00;100366.19;4999278;28;20046;-90
2022/01/07 02:29:34;;;;;;;12.95;5.70;;;4.80;99.90;;;2.97;100.00;100364.94;4976487;28;20473;-90
2022/01/07 02:32:01;;;;;;;18.15;5.75;;;4.70;99.90;;;3.00;100.00;100365.50;5010360;28;20112;-89
2022/01/07 02:34:29;;;;;;;12.25;5.70;;;4.70;99.90;;;2.99;100.00;100368.31;5010626;28;20580;-90
2022/01/07 02:36:58;;;;;;;13.52;5.45;;;4.70;99.90;;;2.98;100.00;100362.09;5011199;28;20053;-90
2022/01/07 02:39:25;;;;;;;16.35;5.80;;;4.80;99.90;;;2.86;100.00;100347.09;5010749;28;20049;-90
2022/01/07 02:41:53;;;;;;;16.25;5.75;;;4.80;99.90;;;2.90;100.00;100349.38;5010414;28;20033;-90
2022/01/07 02:44:20;;;;;;;16.17;6.07;;;4.80;99.90;;;2.84;100.00;100349.09;4993118;28;20069;-90
2022/01/07 02:46:48;;;;;;;15.70;6.13;;;4.70;99.90;;;2.90;100.00;100348.53;5010564;28;20499;-89
2022/01/07 02:49:17;;;;;;;13.15;5.93;;;4.70;99.90;;;2.85;100.00;100351.59;4992859;28;20552;-91
2022/01/07 02:51:46;;;;;;;18.52;5.63;;;4.70;99.90;;;2.77;100.00;100347.94;5009720;28;20046;-91
2022/01/07 02:54:16;;;;;;;15.43;6.03;;;4.70;99.90;;;2.67;100.00;100345.22;5010128;28;20088;-89
2022/01/07 02:56:43;;;;;;;13.48;5.63;;;4.70;99.90;;;2.62;100.00;100336.72;4992484;28;20362;-91
2022/01/07 02:59:12;;;;;;;22.02;7.63;;;4.70;99.90;;;2.71;100.00;100341.28;5010531;28;20070;-91
2022/01/07 03:01:40;;;;;;;16.58;6.85;;;4.70;99.90;;;2.63;100.00;100328.53;5009669;28;20042;-92
2022/01/07 03:04:08;;;;;;;18.05;6.60;;;4.60;99.90;;;2.61;100.00;100330.50;5010756;28;20042;-92
2022/01/07 03:06:37;;;;;;;16.55;6.43;;;4.60;99.90;;;2.60;100.00;100334.16;4984485;28;20046;-89
2022/01/07 03:09:06;;;;;;;18.15;7.32;;;4.60;99.90;;;2.48;100.00;100321.84;4990943;28;20522;-89
2022/01/07 03:11:36;;;;;;;15.60;6.72;;;4.60;99.90;;;2.52;100.00;100318.75;5003211;28;20770;-89
2022/01/07 03:14:03;;;;;;;18.25;6.90;;;4.60;99.90;;;2.53;100.00;100296.28;4990078;28;20042;-90
2022/01/07 03:16:30;;;;;;;19.85;6.78;;;4.60;99.90;;;2.60;100.00;100307.31;5004532;28;20053;-90
2022/01/07 03:18:58;;;;;;;18.73;6.75;;;4.50;99.90;;;2.62;100.00;100302.63;5010143;28;20056;-91
2022/01/07 03:21:26;;;;;;;17.33;7.28;;;4.50;99.90;;;2.56;100.00;100286.25;4991786;28;20056;-91
2022/01/07 03:23:53;;;;;;;14.70;7.05;;;4.70;99.90;;;2.52;100.00;100289.19;4992508;28;20701;-90
2022/01/07 03:26:21;;;;;;;18.02;6.75;;;4.50;99.90;;;2.50;100.00;100285.78;4992244;28;20046;-90
2022/01/07 03:28:50;;;;;;;15.68;6.78;;;4.50;99.90;;;2.53;100.00;100274.78;4992631;28;20045;-90
2022/01/07 03:31:17;;;;;;;16.27;7.47;;;4.40;99.90;;;2.53;100.00;100273.91;4999694;28;20052;-90
2022/01/07 03:33:44;;;;;;;17.42;7.85;;;4.40;99.90;;;2.52;100.00;100266.88;5010040;28;20097;-89
2022/01/07 03:36:12;;;;;;;21.45;7.30;;;4.40;99.90;;;2.38;100.00;100261.88;5001219;28;20125;-90
2022/01/07 03:38:39;;;;;;;17.85;6.55;;;4.40;99.90;;;2.34;100.00;100251.44;4990185;28;20050;-89
2022/01/07 03:41:07;;;;;;;14.55;7.00;;;4.40;99.90;;;2.38;100.00;100251.13;4997281;28;20060;-90
2022/01/07 03:43:34;;;;;;;17.83;6.40;;;4.40;99.90;;;2.39;100.00;100236.72;5009679;28;20788;-90
2022/01/07 03:46:03;;;;;;;16.50;7.35;;;4.40;99.90;;;2.46;100.00;100227.13;5009717;28;20049;-91
2022/01/07 03:48:30;;;;;;;14.05;6.75;;;4.40;99.90;;;2.53;100.00;100239.00;5009454;28;20092;-90
2022/01/07 03:50:58;;;;;;;15.13;6.38;;;4.40;99.90;;;2.40;100.00;100230.34;4991599;28;20705;-90
2022/01/07 03:53:25;;;;;;;16.98;6.53;;;4.40;99.90;;;2.30;100.00;100227.66;5009267;28;20044;-90
2022/01/07 03:55:54;;;;;;;13.85;6.65;;;4.40;99.90;;;2.31;100.00;100219.47;5009693;28;20115;-91
2022/01/07 03:58:21;;;;;;;17.30;6.88;;;4.40;99.90;;;2.25;100.00;100203.91;5008968;28;20046;-90
2022/01/07 04:00:49;;;;;;;14.15;6.70;;;4.40;99.90;;;2.26;100.00;100210.13;5009684;28;20449;-92
2022/01/07 04:03:20;;;;;;;16.77;6.97;;;4.40;99.90;;;2.22;100.00;100209.56;5008225;28;20042;-91
2022/01/07 04:05:48;;;;;;;16.02;6.35;;;4.50;99.90;;;2.26;100.00;100200.22;4990246;28;20600;-92
2022/01/07 04:08:16;;;;;;;14.15;6.40;;;4.40;99.90;;;2.29;100.00;100189.22;4989484;28;20407;-90
2022/01/07 04:10:43;;;;;;;15.15;6.57;;;4.40;99.90;;;2.38;100.00;100202.78;5009333;28;20103;-91
2022/01/07 04:13:11;;;;;;;20.25;6.97;;;4.40;99.90;;;2.38;100.00;100202.78;5008667;28;20100;-90
2022/01/07 04:15:38;;;;;;;16.52;6.93;;;4.40;99.90;;;2.41;100.00;100192.63;5008926;28;20103;-91
2022/01/07 04:18:06;;;;;;;15.15;6.15;;;4.40;99.90;;;2.43;100.00;100205.91;5008959;28;20069;-90
2022/01/07 04:20:36;;;;;;;17.60;6.57;;;4.40;99.90;;;2.48;100.00;100195.63;5008974;28;20045;-92
2022/01/07 04:23:06;;;;;;;15.52;6.47;;;4.40;99.90;;;2.40;100.00;100177.50;5008743;28;20494;-90
2022/01/07 04:25:34;;;;;;;16.35;6.95;;;4.50;99.90;;;2.43;100.00;100189.81;5008811;28;20573;-89
2022/01/07 04:28:05;;;;;;;19.88;6.35;;;4.40;99.90;;;2.50;100.00;100185.56;4989364;28;20116;-91
2022/01/07 04:30:37;;;;;;;16.50;6.43;;;4.50;99.90;;;2.49;100.00;100186.56;5005604;28;20104;-89
2022/01/07 04:33:06;;;;;;;15.82;6.72;;;4.50;99.90;;;2.44;100.00;100183.47;5006977;28;20419;-90
2022/01/07 04:35:37;;;;;;;15.02;6.45;;;4.50;99.90;;;2.43;100.00;100168.31;5008795;28;20411;-90
2022/01/07 04:38:05;;;;;;;13.60;5.78;;;4.50;99.90;;;2.52;100.00;100181.75;5008790;28;20474;-91
2022/01/07 04:40:33;;;;;;;15.73;6.30;;;4.50;99.90;;;2.56;100.00;100181.47;4991161;28;20070;-91
2022/01/07 04:43:02;;;;;;;15.38;6.57;;;4.50;99.90;;;2.46;100.00;100179.63;4990148;28;20044;-89
2022/01/07 04:45:30;;;;;;;18.13;5.93;;;4.60;99.90;;;2.42;100.00;100166.59;5008617;28;20129;-90
2022/01/07 04:47:58;;;;;;;13.20;5.93;;;4.40;99.90;;;2.38;100.00;100166.06;5008478;28;20054;-89
2022/01/07 04:50:26;;;;;;;15.93;5.72;;;4.50;99.90;;;2.39;100.00;100161.53;4990834;28;20077;-90
2022/01/07 04:52:55;;;;;;;13.73;5.13;;;4.50;99.90;;;2.41;100.00;100164.94;5007961;28;20034;-90
2022/01/07 04:55:26;;;;;;;13.50;5.38;;;4.40;99.90;;;2.48;100.00;100168.75;4995082;28;20084;-91
2022/01/07 04:57:54;;;;;;;17.00;4.95;;;4.40;99.90;;;2.47;100.00;100178.63;4989073;28;20050;-91
2022/01/07 05:00:24;;;;;;;12.30;5.50;;;4.50;99.90;;;2.39;100.00;100166.91;4999656;28;20069;-89
2022/01/07 05:02:52;;;;;;;16.33;5.13;;;4.50;99.90;;;2.37;100.00;100166.19;5007977;28;20038;-92
2022/01/07 05:05:19;;;;;;;12.73;5.18;;;4.50;99.90;;;2.31;100.00;100165.75;5008103;28;20052;-89
2022/01/07 05:07:46;;;;;;;12.35;4.80;;;4.50;99.90;;;2.37;100.00;100167.03;4990920;28;20097;-90
2022/01/07 05:10:16;;;;;;;10.50;5.28;;;4.50;99.90;;;2.27;100.00;100150.94;4998014;28;20045;-88
2022/01/07 05:12:44;;;;;;;13.05;5.20;;;4.50;99.90;;;2.38;100.00;100157.13;5006245;28;20042;-91
2022/01/07 05:15:12;;;;;;;12.35;5.00;;;4.50;99.90;;;2.43;100.00;100152.22;4999325;28;20046;-90
2022/01/07 05:17:40;;;;;;;14.40;5.35;;;4.40;99.90;;;2.42;100.00;100169.28;5011744;28;20056;-90
2022/01/07 05:20:09;;;;;;;13.73;5.18;;;4.50;99.90;;;2.37;100.00;100163.53;5012365;28;20073;-89
2022/01/07 05:22:37;;;;;;;11.63;4.90;;;4.40;99.90;;;2.43;100.00;100169.16;5011370;28;20049;-89
2022/01/07 05:25:07;;;;;;;11.43;4.85;;;4.40;99.90;;;2.39;100.00;100167.75;5012152;28;20104;-91
2022/01/07 05:27:36;;;;;;;14.98;5.75;;;4.40;99.90;;;2.42;100.00;100150.50;5010141;28;20041;-91
2022/01/07 05:30:04;;;;;;;15.20;5.40;;;4.50;99.90;;;2.42;100.00;100155.88;4994335;28;20096;-90
2022/01/07 05:32:32;;;;;;;14.18;5.13;;;4.40;99.90;;;2.42;100.00;100161.25;5011039;28;20038;-89
2022/01/07 05:34:59;;;;;;;13.48;4.90;;;4.40;99.90;;;2.34;100.00;100160.13;5012175;28;20225;-90
2022/01/07 05:37:27;;;;;;;14.80;5.30;;;4.40;99.90;;;2.35;100.00;100167.19;5012310;28;20053;-90
2022/01/07 05:39:56;;;;;;;15.57;5.30;;;4.40;99.90;;;2.34;100.00;100148.50;4994093;28;20457;-89
2022/01/07 05:42:23;;;;;;;14.45;5.13;;;4.40;99.90;;;2.37;100.00;100159.00;5011443;28;20046;-90
2022/01/07 05:44:52;;;;;;;16.77;5.72;;;4.50;99.90;;;2.29;100.00;100157.00;5011856;28;20499;-90
2022/01/07 05:47:19;;;;;;;18.55;5.50;;;4.40;99.90;;;2.26;100.00;100148.38;5012141;28;20042;-89
2022/01/07 05:49:46;;;;;;;16.10;5.47;;;4.40;99.90;;;2.28;100.00;100154.44;5011469;28;20120;-90
2022/01/07 05:52:14;;;;;;;13.15;4.97;;;4.30;99.90;;;2.23;100.00;100146.84;5011157;28;20124;-90
2022/01/07 05:54:41;;;;;;;11.63;5.15;;;4.30;99.90;;;2.27;100.00;100148.25;4993930;28;20077;-89
2022/01/07 05:57:08;;;;;;;12.50;5.13;;;4.30;99.90;;;2.15;100.00;100143.97;5006607;28;20313;-89
2022/01/07 05:59:36;;;;;;;12.57;5.00;;;4.40;99.90;;;2.16;100.00;100140.31;4990795;28;20060;-90
2022/01/07 06:02:05;;;;;;;12.15;5.72;;;4.20;99.90;;;2.05;100.00;100151.19;4991245;28;20042;-90
2022/01/07 06:04:32;;;;;;;16.90;5.53;;;4.10;99.90;;;1.97;100.00;100138.44;5009629;28;20041;-90
2022/01/07 06:07:00;;;;;;;14.45;4.97;;;4.10;99.90;;;1.89;100.00;100133.78;5011426;28;20046;-89
2022/01/07 06:09:27;;;;;;;13.32;5.25;;;4.10;99.90;;;1.91;100.00;100141.69;5011219;28;20045;-89
2022/01/07 06:11:55;;;;;;;14.57;5.38;;;4.10;99.90;;;1.94;100.00;100147.63;5010768;28;20120;-90
2022/01/07 06:14:23;;;;;;;11.10;4.90;;;4.10;99.90;;;1.96;100.00;100134.06;5011947;28;20046;-90
2022/01/07 06:16:50;;;;;;;13.48;5.03;;;4.20;99.90;;;1.98;100.00;100136.59;5011562;28;20099;-92
2022/01/07 06:19:19;;;;;;;11.25;5.65;;;4.00;99.90;;;1.91;100.00;100131.81;5011105;28;20100;-89
2022/01/07 06:21:46;;;;;;;17.02;5.75;;;4.10;99.90;;;1.84;100.00;100129.81;4991502;28;20054;-89
2022/01/07 06:24:13;;;;;;;12.98;5.55;;;4.00;99.90;;;1.87;100.00;100133.06;5005265;28;20518;-90
2022/01/07 06:26:41;;;;;;;11.27;5.18;;;4.00;99.90;;;1.85;100.00;100132.38;5010886;28;20427;-90
2022/01/07 06:29:10;;;;;;;13.15;5.50;;;4.00;99.90;;;1.84;100.00;100119.06;5011016;28;20060;-90
2022/01/07 06:31:37;;;;;;;12.50;5.50;;;4.00;99.90;;;1.90;100.00;100135.47;5010813;28;20116;-89
2022/01/07 06:34:04;;;;;;;11.18;5.22;;;4.00;99.90;;;1.92;100.00;100143.38;5006372;28;20133;-90
2022/01/07 06:36:33;;;;;;;11.02;5.32;;;4.00;99.90;;;1.90;100.00;100134.63;4991358;28;20128;-90
2022/01/07 06:39:00;;;;;;;14.15;5.78;;;4.00;99.90;;;2.01;100.00;100136.34;5001329;28;20069;-89
2022/01/07 06:41:28;;;;;;;14.18;5.20;;;4.00;99.90;;;2.00;100.00;100140.00;5009100;28;20453;-90
2022/01/07 06:43:55;;;;;;;12.55;5.95;;;4.00;99.90;;;1.94;100.00;100147.63;5011681;28;20045;-89
2022/01/07 06:46:22;;;;;;;14.68;5.22;;;4.00;99.90;;;1.92;100.00;100141.56;5010925;28;20105;-91
2022/01/07 06:48:49;;;;;;;10.10;5.10;;;4.00;99.90;;;1.99;100.00;100132.97;5010710;28;20156;-90
2022/01/07 06:51:17;;;;;;;11.70;5.95;;;4.00;99.90;;;2.03;100.00;100126.31;5010400;28;20096;-91
2022/01/07 06:53:48;;;;;;;12.63;5.38;;;4.10;99.90;;;2.02;100.00;100124.59;4994593;28;20747;-91
2022/01/07 06:56:15;;;;;;;11.50;5.93;;;4.10;99.90;;;2.06;100.00;100123.38;5016780;28;20100;-88
2022/01/07 06:58:43;;;;;;;15.13;6.20;;;4.10;99.90;;;2.05;100.00;100132.38;5049007;22;20137;-85
2022/01/07 07:01:10;;;;;;;12.60;5.43;;;4.10;99.90;;;2.05;100.00;100122.50;5008830;28;20049;-85
2022/01/07 07:03:39;;;;;;;11.15;6.05;;;4.10;99.90;;;2.10;100.00;100122.09;5009779;28;20038;-89
2022/01/07 07:06:07;;;;;;;12.48;6.18;;;4.10;99.90;;;2.13;100.00;100130.72;5010641;28;20049;-88
2022/01/07 07:08:34;;;;;;;11.75;5.78;;;4.10;99.90;;;2.14;100.00;100118.13;5009601;28;20045;-88
2022/01/07 07:11:03;;;;;;;12.73;5.80;;;4.20;99.90;;;2.13;100.00;100114.63;5009385;28;20053;-87
2022/01/07 07:13:30;;;;;;;15.23;6.57;;;4.20;99.90;;;2.23;100.00;100113.75;5005499;28;20668;-88
2022/01/07 07:15:57;;;;;;;11.73;5.65;;;4.20;99.90;;;2.27;100.00;100123.25;5009776;28;20046;-87
2022/01/07 07:18:25;;;;;;;16.75;6.53;;;4.20;99.90;;;2.30;100.00;100125.63;5009515;28;20493;-89
2022/01/07 07:20:52;;;;;;;13.90;6.72;;;4.30;99.90;;;2.38;100.00;100125.78;4997625;28;20050;-87
2022/01/07 07:23:19;;;;;;;10.40;5.88;;;4.30;99.90;;;2.33;100.00;100118.13;4988623;28;20054;-87
2022/01/07 07:25:47;;;;;;;14.77;6.47;;;4.40;99.90;;;2.37;100.00;100123.25;5009422;28;20092;-88
2022/01/07 07:28:16;;;;;;;25.65;6.57;;;4.30;99.90;;;2.34;100.00;100129.72;5008949;28;20077;-88
2022/01/07 07:30:43;;;;;;;19.27;6.68;;;4.30;99.90;;;2.38;100.00;100133.84;5008966;28;20042;-89
2022/01/07 07:33:30;;;;;;;15.88;6.80;;;4.40;99.90;;;2.38;100.00;100127.59;5008907;28;20149;-88
2022/01/07 07:38:46;;;;;;;13.70;6.18;;;4.40;99.90;;;2.49;100.00;100135.53;5008122;28;20088;-91
2022/01/07 07:41:13;;;;;;;16.00;6.55;;;4.40;99.90;;;2.45;100.00;100137.63;4991486;28;20597;-88
2022/01/07 07:43:42;;;;;;;24.90;6.57;;;4.40;99.90;;;2.47;100.00;100130.28;4991427;28;20153;-88
2022/01/07 07:46:09;;;;;;;22.92;6.60;;;4.40;99.90;;;2.48;100.00;100141.91;4990393;28;20110;-85
2022/01/07 07:48:36;;;;;;;16.80;6.35;;;4.50;99.90;;;2.46;100.00;100135.81;4984631;28;20042;-88
2022/01/07 07:51:04;;;;;;;31.20;7.25;;;4.50;99.90;;;2.57;100.00;100129.44;5007525;28;20052;-88
2022/01/07 07:53:31;;;;;;;40.33;7.47;;;4.50;99.90;;;2.51;100.00;100134.41;5006291;28;20128;-88
2022/01/07 07:55:59;;;;;;;35.63;7.72;;;4.50;99.90;;;2.48;100.00;100133.84;5008387;28;20065;-87
2022/01/07 07:58:27;;;;;;;31.08;6.47;;;4.50;99.90;;;2.55;100.00;100134.94;5008205;28;20137;-89
2022/01/07 08:00:57;;;;;;;16.58;6.30;;;4.60;99.90;;;2.57;100.00;100138.38;5007105;28;20054;-88
2022/01/07 08:03:26;;;;;;;17.25;6.78;;;4.60;99.90;;;2.59;100.00;100141.75;4990828;28;20766;-88
2022/01/07 08:05:53;;;;;;;12.48;5.90;;;4.60;99.90;;;2.61;100.00;100134.41;4991569;28;20140;-87
2022/01/07 08:08:21;;;;;;;18.92;6.32;;;4.60;99.90;;;2.65;100.00;100141.19;4990712;28;20520;-88
2022/01/07 08:10:51;;;;;;;17.73;5.68;;;4.60;99.90;;;2.68;100.00;100145.41;5006555;28;20065;-87
2022/01/07 08:13:30;;;;;;;25.17;6.68;;;4.70;99.90;;;2.62;100.00;100146.81;4989829;28;20046;-87
2022/01/07 08:16:01;;;;;;;22.88;6.72;;;4.70;99.90;;;2.64;100.00;100134.09;5008244;28;20038;-87
2022/01/07 08:18:29;;;;;;;;;;;4.70;99.90;;;2.74;100.00;100144.81;4987858;28;20118;-88
2022/01/07 08:20:58;;;;;;;19.33;5.95;;;4.80;99.90;;;2.81;100.00;100142.44;4984009;28;19929;-86
2022/01/07 08:23:25;;;;;;;28.60;6.57;;;4.80;99.90;;;2.86;100.00;100140.16;4990380;28;20050;-88
2022/01/07 08:25:53;;;;;;;23.10;6.88;;;4.80;99.90;;;2.90;100.00;100139.72;4987248;28;20140;-89
2022/01/07 08:28:23;;;;;;;54.15;6.85;;;4.80;99.90;;;2.91;100.00;100141.44;4972080;28;20124;-92
2022/01/07 08:31:22;;;;;;;21.90;5.88;;;4.80;99.90;;;2.91;100.00;100133.38;4990736;28;20100;-90
2022/01/07 08:36:36;;;;;;;12.38;5.88;;;4.90;99.90;;;2.97;100.00;100134.63;5000777;28;20303;-90
2022/01/07 08:39:07;;;;;;;15.13;5.68;;;4.90;99.90;;;2.97;100.00;100139.13;4971813;28;20108;-88
2022/01/07 08:41:35;;;;;;;12.68;5.85;;;4.90;99.90;;;2.93;100.00;100133.19;4989473;28;20125;-89
2022/01/07 08:44:04;;;;;;;11.10;5.55;;;4.90;99.90;;;2.87;100.00;100129.25;4987376;28;20058;-88
2022/01/07 08:46:32;;;;;;;11.75;5.80;;;4.90;99.90;;;2.97;100.00;100131.06;4990618;28;20072;-89
2022/01/07 08:49:01;;;;;;;13.35;5.47;;;4.90;99.90;;;2.98;100.00;100122.88;4990249;28;20410;-89
2022/01/07 08:51:28;;;;;;;14.80;5.60;;;4.90;99.90;;;2.98;100.00;100122.88;4988859;28;20045;-89
2022/01/07 08:53:57;;;;;;;15.65;5.82;;;4.90;99.90;;;2.96;100.00;100114.09;5008446;28;20088;-88
2022/01/07 08:56:25;;;;;;;13.93;6.00;;;5.00;99.90;;;3.04;100.00;100111.53;5006650;28;20100;-88
2022/01/07 08:58:53;;;;;;;13.75;5.25;;;5.00;99.90;;;3.09;100.00;100106.56;4981357;28;20414;-89
2022/01/07 09:01:21;;;;;;;10.00;4.93;;;5.00;99.90;;;3.18;100.00;100094.09;4991031;28;20443;-88
2022/01/07 09:03:48;;;;;;;14.75;5.20;;;5.00;99.90;;;3.19;100.00;100105.69;5010159;28;20798;-88
2022/01/07 09:06:17;;;;;;;12.95;5.25;;;5.00;99.90;;;3.19;100.00;100101.16;4997971;28;20095;-88
2022/01/07 09:08:45;;;;;;;11.95;5.30;;;5.00;99.90;;;3.22;100.00;100097.31;5016948;28;20041;-87
2022/01/07 09:11:13;;;;;;;12.63;5.90;;;5.10;99.90;;;3.21;100.00;100098.31;5012261;28;20125;-91
2022/01/07 09:13:41;;;;;;;9.85;5.22;;;5.10;99.90;;;3.21;100.00;100114.47;5014533;28;20651;-89
2022/01/07 09:16:08;;;;;;;13.55;5.15;;;5.20;99.90;;;3.23;100.00;100096.34;5019064;28;20494;-90
2022/01/07 09:18:35;;;;;;;7.00;4.03;;;5.20;99.90;;;3.30;100.00;100097.44;5013217;28;20069;-89
2022/01/07 09:21:02;;;;;;;12.05;4.93;;;5.20;99.90;;;3.36;100.00;100096.84;5011434;28;20723;-85
2022/01/07 09:23:31;;;;;;;9.38;3.95;;;5.30;99.90;;;3.30;100.00;100092.06;4998108;28;20033;-86
2022/01/07 09:25:58;;;;;;;9.75;4.60;;;5.20;99.90;;;3.34;100.00;100104.22;5017701;28;20048;-86
2022/01/07 09:28:26;;;;;;;11.10;4.80;;;5.20;99.90;;;3.33;100.00;100097.13;5016408;28;20377;-87
2022/01/07 09:30:53;;;;;;;30.13;5.40;;;5.20;99.90;;;3.29;100.00;100096.59;5011012;28;20121;-87
2022/01/07 09:33:20;;;;;;;23.00;5.50;;;5.30;99.90;;;3.37;100.00;100113.81;5007534;28;20148;-86
2022/01/07 09:35:50;;;;;;;42.00;6.10;;;5.20;99.90;;;3.34;100.00;100106.91;5005219;28;20475;-87
2022/01/07 09:38:18;;;;;;;31.42;5.43;;;5.30;99.90;;;3.35;100.00;100114.00;5002270;28;20133;-87
2022/01/07 09:40:46;;;;;;;21.33;5.50;;;5.30;99.90;;;3.42;100.00;100112.38;5006062;28;20050;-87
2022/01/07 09:43:17;;;;;;;18.75;4.90;;;5.30;99.90;;;3.37;100.00;100109.31;5003142;28;20046;-86
2022/01/07 09:45:44;;;;;;;18.23;5.18;;;5.30;99.90;;;3.38;100.00;100116.38;5010292;28;20099;-87
2022/01/07 09:48:11;;;;;;;21.58;5.05;;;5.30;99.90;;;3.33;100.00;100119.50;5007514;28;20111;-86
2022/01/07 09:50:39;;;;;;;19.05;5.85;;;5.30;99.90;;;3.33;100.00;100115.94;4995000;28;20596;-87
2022/01/07 09:53:08;;;;;;;8.75;4.18;;;5.30;99.90;;;3.35;100.00;100110.44;5007002;28;20073;-87
2022/01/07 09:55:35;;;;;;;16.55;4.72;;;5.30;99.90;;;3.35;100.00;100105.06;5002953;28;20084;-86
2022/01/07 09:58:05;;;;;;;15.13;4.90;;;5.30;99.90;;;3.39;100.00;100104.63;5003715;28;20092;-87
2022/01/07 10:00:37;;;;;;;16.92;4.80;;;5.30;99.90;;;3.47;100.00;100107.41;5008236;28;20046;-87
2022/01/07 10:03:07;;;;;;;12.25;5.20;;;5.30;99.90;;;3.41;100.00;100107.13;5008209;28;20103;-87
2022/01/07 10:05:42;;;;;;;19.95;5.40;;;5.30;99.90;;;3.40;100.00;100098.22;4992138;28;20581;-87
2022/01/07 10:08:25;;;;;;;30.55;5.97;;;5.50;99.90;;;3.40;100.00;100097.41;4991717;28;20034;-87
2022/01/07 10:11:18;;;;;;;20.95;4.60;;;5.40;99.90;;;3.47;100.00;100099.34;4993727;28;20070;-87
2022/01/07 10:13:49;;;;;;;15.38;4.60;;;5.40;99.90;;;3.52;100.00;100104.25;4996540;28;20050;-91
2022/01/07 10:16:19;;;;;;;22.23;4.55;;;5.50;99.90;;;3.57;100.00;100101.13;4993560;28;20560;-88
2022/01/07 10:18:48;;;;;;;19.52;5.53;;;5.50;99.90;;;3.62;100.00;100102.38;5009012;28;20050;-87
2022/01/07 10:21:18;;;;;;;20.08;4.60;;;5.50;99.90;;;3.67;100.00;100100.06;5005524;28;20143;-87
2022/01/07 10:23:47;;;;;;;12.55;4.68;;;5.50;99.90;;;3.66;100.00;100105.63;5007653;28;20136;-90
2022/01/07 10:26:17;;;;;;;31.80;4.50;;;5.50;99.90;;;3.69;100.00;100091.84;4992055;28;20077;-88